Magadan, Russia
Current Conditions -  °F | °C
As of 5:00 AM on Sunday 26 Oct 2014 (Local Time) from UHMM Reporting Station
Scattered Clouds Scattered Clouds  
Wind Chill: -6°   Ceiling: Unl
Heat Index: -6°   Visibility: 6mi
Dew Point: -9°   Wind: 0mph
Humidity: 84%   Direction: NA
Pressure: 29.83"   Gusts: NA
Location:  59.57°N, 150.8°E
Report Text: UHMM 251800Z 00000MPS 9999 SCT100 M21/M23 Q1010 RMK QFE742
Loading
Personal Weather Stations






























Interactive Weather Map
Tropical Storm Tracking
New forecast layout! Learn more

10-Day Weather Forecast

Advertisements
Track Severe Weather on mobile